Time;durP1;ratioP1;P1;durP2;ratioP2;P2;SDS_P1;SDS_P2;PMS_P1;PMS_P2;Temp;Humidity;BMP_temperature;BMP_pressure;BME280_temperature;BME280_humidity;BME280_pressure;Samples;Min_cycle;Max_cycle;Signal;HPM_P1;HPM_P2
2022/09/19 00:01:56;;;;;;;5.75;2.20;;;19.00;92.90;;;;;;5047855;28;20041;-74
2022/09/19 00:04:34;;;;;;;3.25;1.13;;;19.00;92.90;;;;;;5013353;28;20119;-73
2022/09/19 00:07:01;;;;;;;2.95;1.00;;;18.90;93.00;;;;;;5013295;28;20156;-74
2022/09/19 00:09:32;;;;;;;2.05;1.10;;;18.90;93.10;;;;;;5026054;28;20408;-72
2022/09/19 00:12:00;;;;;;;3.10;1.20;;;18.80;93.20;;;;;;5026634;28;20543;-72
2022/09/19 00:14:32;;;;;;;3.28;1.20;;;18.80;93.10;;;;;;5009908;28;20480;-72
2022/09/19 00:17:04;;;;;;;7.22;1.50;;;18.70;93.20;;;;;;5026332;28;20052;-72
2022/09/19 00:19:32;;;;;;;3.30;1.20;;;18.70;93.20;;;;;;5030258;28;20052;-72
2022/09/19 00:22:01;;;;;;;3.20;1.95;;;18.70;93.30;;;;;;5014219;28;20041;-72
2022/09/19 00:24:49;;;;;;;2.20;1.20;;;18.70;93.30;;;;;;5030062;28;20045;-74
2022/09/19 00:27:23;;;;;;;1.65;1.17;;;18.60;93.30;;;;;;5030503;28;20129;-73
2022/09/19 00:29:52;;;;;;;2.47;1.25;;;18.60;93.30;;;;;;5014102;28;20088;-72
2022/09/19 00:32:21;;;;;;;3.70;1.67;;;18.60;93.40;;;;;;5014001;28;20056;-73
2022/09/19 00:34:50;;;;;;;4.93;1.52;;;18.60;93.70;;;;;;5013713;28;20064;-72
2022/09/19 00:37:20;;;;;;;2.10;1.30;;;18.60;93.50;;;;;;5030226;28;20041;-72
2022/09/19 00:39:47;;;;;;;3.10;1.02;;;18.50;93.60;;;;;;5014088;28;20061;-72
2022/09/19 00:42:25;;;;;;;3.90;1.52;;;18.60;93.60;;;;;;5030322;28;20049;-72
2022/09/19 00:44:59;;;;;;;1.90;1.15;;;18.50;93.60;;;;;;5013719;28;20135;-75
2022/09/19 00:47:38;;;;;;;2.13;1.20;;;18.50;93.60;;;;;;5030107;28;20049;-72
2022/09/19 00:50:12;;;;;;;2.65;1.00;;;18.50;93.70;;;;;;5013602;28;20071;-72
2022/09/19 00:53:05;;;;;;;1.63;1.00;;;18.50;93.70;;;;;;5013397;28;20136;-73
2022/09/19 00:55:32;;;;;;;2.10;1.10;;;18.50;93.70;;;;;;5029942;28;20056;-72
2022/09/19 00:58:21;;;;;;;2.83;1.40;;;18.50;93.80;;;;;;5013609;28;20045;-72
2022/09/19 01:00:50;;;;;;;3.33;1.25;;;18.50;93.80;;;;;;5030067;28;20072;-72
2022/09/19 01:03:17;;;;;;;3.85;1.52;;;18.40;93.80;;;;;;5013306;28;20050;-73
2022/09/19 01:06:02;;;;;;;2.90;1.05;;;18.50;93.90;;;;;;5030025;28;20055;-72
2022/09/19 01:09:03;;;;;;;2.17;1.40;;;18.40;93.90;;;;;;5032659;28;20057;-72
2022/09/19 01:12:02;;;;;;;2.45;1.05;;;18.40;94.00;;;;;;5016157;28;20620;-72
2022/09/19 01:14:40;;;;;;;1.33;0.95;;;18.40;93.90;;;;;;5032810;28;20249;-72
2022/09/19 01:17:28;;;;;;;2.25;1.10;;;18.40;93.90;;;;;;5032535;28;20480;-72
2022/09/19 01:19:58;;;;;;;3.90;0.90;;;18.40;94.00;;;;;;5000187;28;20049;-73
2022/09/19 01:22:43;;;;;;;4.13;1.17;;;18.40;94.20;;;;;;5016362;28;20778;-72
2022/09/19 01:25:31;;;;;;;2.65;0.95;;;18.50;94.20;;;;;;5016250;28;20330;-73
2022/09/19 01:28:10;;;;;;;1.98;1.52;;;18.50;94.20;;;;;;5032486;28;20056;-72
2022/09/19 01:31:16;;;;;;;1.95;0.90;;;18.50;94.20;;;;;;5032168;28;20048;-73
2022/09/19 01:33:44;;;;;;;3.22;1.20;;;18.40;94.30;;;;;;5032076;28;20389;-73
2022/09/19 01:36:14;;;;;;;3.33;1.42;;;18.50;94.20;;;;;;4999534;28;20068;-72
2022/09/19 01:38:45;;;;;;;1.95;0.90;;;18.50;94.20;;;;;;5032256;28;20614;-72
2022/09/19 01:41:14;;;;;;;3.10;1.98;;;18.50;94.20;;;;;;5016273;28;20053;-73
2022/09/19 01:43:42;;;;;;;1.55;0.70;;;18.50;94.20;;;;;;5032262;28;20044;-73
2022/09/19 01:46:28;;;;;;;2.70;0.85;;;18.50;94.20;;;;;;4999707;28;20045;-73
2022/09/19 01:49:06;;;;;;;1.00;0.70;;;18.50;94.30;;;;;;5050266;28;20179;-72
2022/09/19 01:51:45;;;;;;;2.92;1.48;;;18.40;94.20;;;;;;4999605;28;20056;-72
2022/09/19 01:54:38;;;;;;;1.60;0.80;;;18.40;94.20;;;;;;5032283;28;20049;-72
2022/09/19 01:57:15;;;;;;;2.80;1.20;;;18.40;94.10;;;;;;5015427;28;20055;-73
2022/09/19 01:59:47;;;;;;;3.00;1.30;;;18.30;94.00;;;;;;5031675;28;20041;-72
2022/09/19 02:02:29;;;;;;;2.85;1.10;;;18.30;93.90;;;;;;4998935;28;20098;-72
2022/09/19 02:05:35;;;;;;;2.30;1.42;;;18.10;93.70;;;;;;5031504;28;20045;-73
2022/09/19 02:08:15;;;;;;;4.70;1.20;;;18.10;93.80;;;;;;5015268;28;20048;-72
2022/09/19 02:10:54;;;;;;;3.33;1.30;;;18.10;93.90;;;;;;5015078;28;20052;-73
2022/09/19 02:13:29;;;;;;;4.20;1.30;;;18.00;94.00;;;;;;5015430;28;20053;-74
2022/09/19 02:16:11;;;;;;;4.70;1.17;;;17.90;93.90;;;;;;5016611;28;20047;-72
2022/09/19 02:18:53;;;;;;;1.25;0.88;;;17.90;93.70;;;;;;5031724;28;20037;-73
2022/09/19 02:21:48;;;;;;;3.67;1.15;;;17.90;93.70;;;;;;5015404;28;20072;-73
2022/09/19 02:24:21;;;;;;;6.05;1.60;;;17.90;93.70;;;;;;5049458;28;20044;-72
2022/09/19 02:26:51;;;;;;;3.88;1.10;;;17.90;93.70;;;;;;5031278;28;20482;-72
2022/09/19 02:29:25;;;;;;;3.42;1.15;;;17.80;93.70;;;;;;4998852;28;20088;-73
2022/09/19 02:31:53;;;;;;;3.03;1.65;;;17.80;93.70;;;;;;5049301;28;20063;-74
2022/09/19 02:34:20;;;;;;;2.17;0.98;;;17.80;93.80;;;;;;5031424;28;20060;-72
2022/09/19 02:37:20;;;;;;;2.72;1.02;;;17.80;93.70;;;;;;5014571;28;20049;-73
2022/09/19 02:40:17;;;;;;;1.88;1.15;;;17.80;93.70;;;;;;5014405;28;20041;-72
2022/09/19 02:42:56;;;;;;;3.72;1.40;;;17.70;93.70;;;;;;5027270;28;20096;-73
2022/09/19 02:45:32;;;;;;;3.33;1.63;;;17.70;93.70;;;;;;5030581;28;20087;-72
2022/09/19 02:48:31;;;;;;;2.45;1.08;;;17.70;93.70;;;;;;5031034;28;20049;-72
2022/09/19 02:51:05;;;;;;;1.55;0.80;;;17.70;93.70;;;;;;4998600;28;20083;-72
2022/09/19 02:53:41;;;;;;;1.55;0.90;;;17.60;93.70;;;;;;5014256;28;20048;-72
2022/09/19 02:56:14;;;;;;;2.80;1.08;;;17.70;93.70;;;;;;4998601;28;20068;-72
2022/09/19 02:58:53;;;;;;;2.08;1.02;;;17.60;93.80;;;;;;5013619;28;20048;-72
2022/09/19 03:01:29;;;;;;;2.85;0.85;;;17.60;93.80;;;;;;5030466;28;20079;-72
2022/09/19 03:04:13;;;;;;;1.98;1.10;;;17.60;93.90;;;;;;5030283;28;20068;-72
2022/09/19 03:07:07;;;;;;;1.73;0.80;;;17.60;93.90;;;;;;4998828;28;20529;-73
2022/09/19 03:09:34;;;;;;;2.28;1.00;;;17.50;93.90;;;;;;5013696;28;20555;-72
2022/09/19 03:12:37;;;;;;;1.60;0.95;;;17.50;93.90;;;;;;5030392;28;20113;-72
2022/09/19 03:15:07;;;;;;;2.58;1.10;;;17.60;93.90;;;;;;5030450;28;20134;-72
2022/09/19 03:17:43;;;;;;;2.67;1.10;;;17.50;94.00;;;;;;5013781;28;20041;-72
2022/09/19 03:20:14;;;;;;;2.42;1.02;;;17.50;93.90;;;;;;4997694;28;20053;-72
2022/09/19 03:22:45;;;;;;;2.10;1.38;;;17.50;93.90;;;;;;5013656;28;20049;-72
2022/09/19 03:25:14;;;;;;;1.58;1.10;;;17.50;93.90;;;;;;5013969;28;20084;-72
2022/09/19 03:27:43;;;;;;;2.20;1.23;;;17.50;94.00;;;;;;5013633;28;20119;-72
2022/09/19 03:30:15;;;;;;;0.95;0.65;;;17.50;93.90;;;;;;5014432;28;20425;-73
2022/09/19 03:32:45;;;;;;;2.05;1.15;;;17.50;93.90;;;;;;5029507;28;20044;-73
2022/09/19 03:35:14;;;;;;;3.13;1.15;;;17.50;93.80;;;;;;5047579;28;20383;-73
2022/09/19 03:37:44;;;;;;;1.48;0.77;;;17.50;93.70;;;;;;4997502;28;20446;-73
2022/09/19 03:40:14;;;;;;;0.98;0.65;;;17.50;93.70;;;;;;5029547;28;20055;-72
2022/09/19 03:42:45;;;;;;;3.35;1.30;;;17.60;93.70;;;;;;4997373;28;20049;-73
2022/09/19 03:45:16;;;;;;;3.10;0.90;;;17.60;93.70;;;;;;5013813;28;20408;-73
2022/09/19 03:47:43;;;;;;;1.00;0.70;;;17.60;93.60;;;;;;5013717;28;20069;-73
2022/09/19 03:50:11;;;;;;;2.58;0.70;;;17.60;93.70;;;;;;5029545;28;20081;-72
2022/09/19 03:52:49;;;;;;;1.50;0.88;;;17.60;93.70;;;;;;5014701;28;20045;-72
2022/09/19 03:55:18;;;;;;;2.70;0.90;;;17.60;93.60;;;;;;5001429;28;20060;-72
2022/09/19 03:57:46;;;;;;;1.73;1.27;;;17.60;93.60;;;;;;5000919;28;20147;-73
2022/09/19 04:00:18;;;;;;;1.70;0.80;;;17.60;93.40;;;;;;5001304;28;20049;-76
2022/09/19 04:02:46;;;;;;;1.02;0.55;;;17.60;93.30;;;;;;5033725;28;20037;-72
2022/09/19 04:05:15;;;;;;;2.17;0.85;;;17.70;93.30;;;;;;5017076;28;20564;-73
2022/09/19 04:07:42;;;;;;;2.60;0.93;;;17.70;93.10;;;;;;5017165;28;20098;-72
2022/09/19 04:10:10;;;;;;;2.60;0.88;;;17.70;93.00;;;;;;5033249;28;20076;-73
2022/09/19 04:12:40;;;;;;;2.58;0.75;;;17.70;93.00;;;;;;5017195;28;20359;-72
2022/09/19 04:15:10;;;;;;;2.83;0.90;;;17.80;93.10;;;;;;5033274;28;20045;-73
2022/09/19 04:17:41;;;;;;;1.88;0.75;;;17.80;93.10;;;;;;5017012;28;20135;-72
2022/09/19 04:20:13;;;;;;;2.40;1.30;;;17.80;93.00;;;;;;5016990;28;20390;-75
2022/09/19 04:22:52;;;;;;;3.15;1.63;;;17.80;93.10;;;;;;5035322;28;20044;-72
2022/09/19 04:25:46;;;;;;;1.45;0.98;;;17.80;93.10;;;;;;5032949;28;20095;-72
2022/09/19 04:28:24;;;;;;;2.88;0.80;;;17.80;93.20;;;;;;5016713;28;20049;-76
2022/09/19 04:30:51;;;;;;;2.40;1.25;;;17.80;93.30;;;;;;5032858;28;20091;-73
2022/09/19 04:33:26;;;;;;;2.45;1.13;;;17.80;93.50;;;;;;5016722;28;20049;-72
2022/09/19 04:36:00;;;;;;;2.47;0.98;;;17.80;93.20;;;;;;5032984;28;20069;-72
2022/09/19 04:38:30;;;;;;;2.55;1.33;;;17.80;93.20;;;;;;5016875;28;20048;-72
2022/09/19 04:41:00;;;;;;;4.28;1.10;;;17.80;93.20;;;;;;5017044;28;20363;-75
2022/09/19 04:43:31;;;;;;;2.22;1.13;;;17.90;93.20;;;;;;5017088;28;20045;-72
2022/09/19 04:46:09;;;;;;;3.83;1.85;;;17.90;93.20;;;;;;5033090;28;20124;-72
2022/09/19 04:48:48;;;;;;;4.97;1.48;;;18.00;93.30;;;;;;5016462;28;20059;-71
2022/09/19 04:51:21;;;;;;;6.18;1.75;;;18.20;93.40;;;;;;5033268;28;20446;-73
2022/09/19 04:53:48;;;;;;;3.25;1.30;;;18.30;93.10;;;;;;5016874;28;20040;-72
2022/09/19 04:56:18;;;;;;;2.92;1.20;;;18.40;93.10;;;;;;5050890;28;20048;-73
2022/09/19 04:58:45;;;;;;;4.30;1.23;;;18.60;92.90;;;;;;5050292;28;20055;-72
2022/09/19 05:01:14;;;;;;;3.38;1.40;;;18.70;92.80;;;;;;5032471;28;20056;-75
2022/09/19 05:03:44;;;;;;;3.33;1.77;;;18.90;92.90;;;;;;5050040;28;20073;-74
2022/09/19 05:06:13;;;;;;;5.00;1.55;;;19.00;92.60;;;;;;5015935;28;20076;-71
2022/09/19 05:08:41;;;;;;;3.33;1.30;;;19.10;92.50;;;;;;5031837;28;20144;-73
2022/09/19 05:11:21;;;;;;;3.78;1.13;;;19.30;92.50;;;;;;5017083;28;20045;-73
2022/09/19 05:13:51;;;;;;;2.60;1.15;;;19.40;92.40;;;;;;5015728;28;20483;-71
2022/09/19 05:16:25;;;;;;;3.80;1.73;;;19.50;92.40;;;;;;5015510;28;20053;-73
2022/09/19 05:18:58;;;;;;;1.98;1.00;;;19.70;92.40;;;;;;5031979;28;20037;-72
2022/09/19 05:21:26;;;;;;;4.32;1.92;;;19.80;92.30;;;;;;5015147;28;20436;-72
2022/09/19 05:23:56;;;;;;;2.97;1.25;;;19.90;92.00;;;;;;5015325;28;20091;-72
2022/09/19 05:26:24;;;;;;;1.15;0.88;;;20.00;91.50;;;;;;5032260;28;20155;-73
2022/09/19 05:28:55;;;;;;;1.60;1.13;;;20.20;91.50;;;;;;5015648;28;20057;-72
2022/09/19 05:31:26;;;;;;;2.92;1.02;;;20.30;91.30;;;;;;5015584;28;20052;-72
2022/09/19 05:34:03;;;;;;;1.27;0.80;;;20.50;91.40;;;;;;5049556;28;20399;-72
2022/09/19 05:36:32;;;;;;;2.30;1.17;;;20.60;91.50;;;;;;5015697;28;20091;-72
2022/09/19 05:39:12;;;;;;;2.03;0.80;;;20.80;91.20;;;;;;5049955;28;20049;-75
2022/09/19 05:42:01;;;;;;;3.58;1.05;;;21.00;91.10;;;;;;5015583;28;20049;-73
2022/09/19 05:44:32;;;;;;;3.85;1.00;;;21.20;90.90;;;;;;5015249;28;20106;-72
2022/09/19 05:47:02;;;;;;;1.98;0.93;;;21.40;90.90;;;;;;5031705;28;20102;-72
2022/09/19 05:49:30;;;;;;;3.05;1.00;;;21.60;90.90;;;;;;5049522;28;20060;-72
2022/09/19 05:53:51;;;;;;;1.20;0.82;;;21.70;90.90;;;;;;5031629;28;20055;-72
2022/09/19 05:54:48;;;;;;;5.03;1.10;;;21.90;90.80;;;;;;5031573;28;20110;-72
2022/09/19 05:57:40;;;;;;;3.53;1.48;;;22.00;90.80;;;;;;5014569;28;20193;-72
2022/09/19 06:00:08;;;;;;;2.72;1.15;;;22.20;90.60;;;;;;5049329;28;20041;-72
2022/09/19 06:02:42;;;;;;;4.07;1.05;;;22.30;90.50;;;;;;5016434;28;20184;-74
2022/09/19 06:05:11;;;;;;;3.97;0.88;;;22.50;90.40;;;;;;5031526;28;20127;-72
2022/09/19 06:07:41;;;;;;;3.08;1.23;;;22.70;90.50;;;;;;5031656;28;20119;-72
2022/09/19 06:10:09;;;;;;;1.92;0.82;;;22.80;90.80;;;;;;5031063;28;20053;-72
2022/09/19 06:12:36;;;;;;;1.27;0.68;;;22.80;90.80;;;;;;5031097;28;20210;-72
2022/09/19 06:15:05;;;;;;;3.17;0.90;;;22.90;90.90;;;;;;5030635;28;20041;-72
2022/09/19 06:17:33;;;;;;;2.38;0.98;;;22.80;91.20;;;;;;5014878;28;20410;-72
2022/09/19 06:20:37;;;;;;;1.42;0.73;;;22.90;91.50;;;;;;5030879;28;20503;-74
2022/09/19 06:23:13;;;;;;;2.40;0.80;;;23.00;91.00;;;;;;5014562;28;20206;-74
2022/09/19 06:25:40;;;;;;;1.77;0.88;;;23.10;90.40;;;;;;5030973;28;20530;-73
2022/09/19 06:28:12;;;;;;;1.35;0.70;;;23.30;90.50;;;;;;5031618;28;20081;-72
2022/09/19 06:31:07;;;;;;;;;;;23.40;90.20;;;;;;5016654;28;20403;-72
2022/09/19 06:33:44;;;;;;;1.30;0.80;;;23.60;90.00;;;;;;5031295;28;19975;-72
2022/09/19 06:36:17;;;;;;;3.13;0.80;;;23.70;89.30;;;;;;5030906;28;20470;-72
2022/09/19 06:38:45;;;;;;;2.72;0.80;;;23.90;88.90;;;;;;5014005;28;20124;-72
2022/09/19 06:41:36;;;;;;;2.47;0.85;;;24.10;88.60;;;;;;5042977;28;20076;-71
2022/09/19 06:44:39;;;;;;;3.80;0.90;;;24.10;88.20;;;;;;4989765;28;20073;-72
2022/09/19 06:47:13;;;;;;;3.33;1.35;;;24.30;88.10;;;;;;5024316;28;20053;-73
2022/09/19 06:50:04;;;;;;;3.67;0.98;;;24.40;88.00;;;;;;5030973;28;20049;-75
2022/09/19 06:52:34;;;;;;;1.38;0.68;;;24.50;87.60;;;;;;5030780;28;20075;-74
2022/09/19 06:55:03;;;;;;;2.60;1.00;;;24.60;87.00;;;;;;5014568;28;20506;-72
2022/09/19 06:57:33;;;;;;;4.70;1.00;;;24.70;86.70;;;;;;5030410;28;20049;-72
2022/09/19 07:00:01;;;;;;;0.57;0.50;;;24.50;86.70;;;;;;5014255;28;20519;-74
2022/09/19 07:02:31;;;;;;;2.05;0.63;;;24.50;86.80;;;;;;5014136;28;20052;-72
2022/09/19 07:04:59;;;;;;;1.95;0.88;;;24.60;86.80;;;;;;5030378;28;20045;-72
2022/09/19 07:07:41;;;;;;;1.80;1.10;;;24.60;87.30;;;;;;5013682;28;20075;-74
2022/09/19 07:10:10;;;;;;;2.22;0.55;;;24.70;87.30;;;;;;5013501;28;20226;-72
2022/09/19 07:12:41;;;;;;;1.58;0.80;;;24.80;86.30;;;;;;5029465;28;20140;-71
2022/09/19 07:15:10;;;;;;;2.83;0.70;;;24.90;86.70;;;;;;5014378;28;20211;-72
2022/09/19 07:17:38;;;;;;;1.35;0.85;;;24.50;84.10;;;;;;5029842;28;20068;-74
2022/09/19 07:20:06;;;;;;;1.33;0.75;;;24.60;83.40;;;;;;5030141;28;20111;-74
2022/09/19 07:22:42;;;;;;;;;;;24.40;82.40;;;;;;5015473;28;20045;-72
2022/09/19 07:25:19;;;;;;;3.63;0.90;;;24.30;83.70;;;;;;5015159;28;20695;-73
2022/09/19 07:28:01;;;;;;;1.60;0.93;;;24.40;81.00;;;;;;5029951;28;20547;-72
2022/09/19 07:30:33;;;;;;;1.95;1.02;;;24.60;80.50;;;;;;5029672;28;20041;-72
2022/09/19 07:33:04;;;;;;;5.38;1.25;;;24.70;76.60;;;;;;5013208;28;20091;-72
2022/09/19 07:35:37;;;;;;;4.70;1.05;;;24.80;73.90;;;;;;5030093;28;20130;-71
2022/09/19 07:38:06;;;;;;;2.95;1.60;;;24.70;72.80;;;;;;5029862;28;20383;-72
2022/09/19 07:40:59;;;;;;;7.32;3.13;;;24.60;74.00;;;;;;5011183;28;20048;-72
2022/09/19 07:43:31;;;;;;;2.33;1.73;;;24.70;72.00;;;;;;5013131;28;20056;-72
2022/09/19 07:46:17;;;;;;;1.90;1.20;;;24.60;69.20;;;;;;5047617;28;20063;-73
2022/09/19 07:49:03;;;;;;;4.53;1.85;;;24.60;71.50;;;;;;5032843;28;20175;-73
2022/09/19 07:52:05;;;;;;;4.88;2.53;;;24.80;70.90;;;;;;5029769;28;20134;-75
2022/09/19 07:54:33;;;;;;;2.67;1.58;;;24.70;71.20;;;;;;5013112;28;20142;-72
2022/09/19 07:57:00;;;;;;;3.25;1.60;;;24.80;72.50;;;;;;5029602;28;20097;-71
2022/09/19 07:59:28;;;;;;;3.72;1.35;;;24.60;73.30;;;;;;5029360;28;20491;-73
2022/09/19 08:01:59;;;;;;;2.58;1.45;;;24.60;74.40;;;;;;5013206;28;20418;-72
2022/09/19 08:04:33;;;;;;;2.33;1.33;;;24.70;75.90;;;;;;5029461;28;20041;-72
2022/09/19 08:07:03;;;;;;;2.28;1.25;;;24.80;76.50;;;;;;5013853;28;20063;-72
2022/09/19 08:09:32;;;;;;;2.72;1.40;;;24.70;78.20;;;;;;5013384;28;20081;-73
2022/09/19 08:12:09;;;;;;;1.83;0.90;;;24.70;78.60;;;;;;5014383;28;20115;-72
2022/09/19 08:14:41;;;;;;;2.80;1.17;;;24.80;78.90;;;;;;5013518;28;20124;-71
2022/09/19 08:17:09;;;;;;;1.23;0.82;;;25.00;78.90;;;;;;5012969;28;20486;-71
2022/09/19 08:19:37;;;;;;;3.60;0.77;;;25.30;79.10;;;;;;5012802;28;20427;-72
2022/09/19 08:22:05;;;;;;;1.08;0.68;;;25.00;79.60;;;;;;5029634;28;20041;-72
2022/09/19 08:24:38;;;;;;;1.60;0.80;;;25.10;80.00;;;;;;5028987;28;20092;-71
2022/09/19 08:27:12;;;;;;;2.17;0.90;;;25.40;80.30;;;;;;5029355;28;20107;-73
2022/09/19 08:29:39;;;;;;;1.88;0.70;;;25.60;80.00;;;;;;5029788;28;20045;-71
2022/09/19 08:32:11;;;;;;;1.92;1.05;;;25.70;80.20;;;;;;5013579;28;20055;-73
2022/09/19 08:34:39;;;;;;;1.83;0.88;;;25.80;80.10;;;;;;5012918;28;20057;-74
2022/09/19 08:37:07;;;;;;;2.17;0.80;;;26.10;80.00;;;;;;5029404;28;20045;-72
2022/09/19 08:40:15;;;;;;;3.42;1.38;;;26.20;80.20;;;;;;5016075;28;20052;-72
2022/09/19 08:42:40;;;;;;;3.42;1.23;;;26.30;79.60;;;;;;5016428;28;20372;-72
2022/09/19 08:45:32;;;;;;;1.63;0.90;;;26.00;79.60;;;;;;5000744;28;20079;-72
2022/09/19 08:48:05;;;;;;;1.38;0.80;;;25.80;80.40;;;;;;5032807;28;20060;-73
2022/09/19 08:50:35;;;;;;;1.63;0.90;;;26.00;80.40;;;;;;5032423;28;20045;-74
2022/09/19 08:53:12;;;;;;;;;;;26.10;80.30;;;;;;5033291;28;20037;-72
2022/09/19 08:55:41;;;;;;;1.63;0.88;;;26.30;81.10;;;;;;5032527;28;19971;-72
2022/09/19 08:58:18;;;;;;;1.92;0.95;;;26.10;81.60;;;;;;5032685;28;20068;-72
2022/09/19 09:01:07;;;;;;;9.93;2.25;;;26.00;81.90;;;;;;5035552;28;20055;-72
2022/09/19 09:04:14;;;;;;;1.92;0.90;;;25.80;81.60;;;;;;5032664;28;20056;-72
2022/09/19 09:07:10;;;;;;;2.30;1.30;;;25.70;81.80;;;;;;5015944;28;20127;-72
2022/09/19 09:09:55;;;;;;;5.05;1.33;;;25.60;82.10;;;;;;5015855;28;20057;-73
2022/09/19 09:13:05;;;;;;;2.35;1.20;;;25.40;82.20;;;;;;5032552;28;20137;-72
2022/09/19 09:15:51;;;;;;;2.65;1.52;;;25.40;82.60;;;;;;4988569;28;20468;-74
2022/09/19 09:18:26;;;;;;;2.22;1.40;;;25.70;82.60;;;;;;5031773;28;20585;-73
2022/09/19 09:21:03;;;;;;;4.05;1.58;;;25.90;80.90;;;;;;5032354;28;20064;-72
2022/09/19 09:23:38;;;;;;;4.75;1.85;;;25.80;80.70;;;;;;5032569;28;20178;-72
2022/09/19 09:26:36;;;;;;;5.38;2.63;;;26.00;80.30;;;;;;5002030;28;20447;-75
2022/09/19 09:29:14;;;;;;;5.03;2.25;;;25.80;80.70;;;;;;5015552;28;20048;-72
2022/09/19 09:31:59;;;;;;;3.92;2.25;;;25.80;80.70;;;;;;5015180;28;20098;-72
2022/09/19 09:34:40;;;;;;;9.38;2.20;;;25.70;81.90;;;;;;5015338;28;20084;-72
2022/09/19 09:37:25;;;;;;;5.30;1.90;;;25.80;80.00;;;;;;4999365;28;20483;-73
2022/09/19 09:40:13;;;;;;;2.90;1.42;;;26.10;78.90;;;;;;5016525;28;20045;-72
2022/09/19 09:43:02;;;;;;;5.65;2.00;;;26.20;78.90;;;;;;5016080;28;20590;-73
2022/09/19 09:45:49;;;;;;;3.47;1.50;;;26.20;77.80;;;;;;5015910;28;20098;-72
2022/09/19 09:48:31;;;;;;;2.78;1.35;;;26.40;77.00;;;;;;5014318;28;20091;-77
2022/09/19 09:51:18;;;;;;;6.40;1.77;;;26.70;77.10;;;;;;5014009;28;20053;-72
2022/09/19 09:54:05;;;;;;;3.10;1.40;;;26.90;77.60;;;;;;5015405;28;20080;-71
2022/09/19 09:56:48;;;;;;;2.90;1.40;;;26.90;77.60;;;;;;5015312;28;20063;-71
2022/09/19 10:05:44;;;;;;;6.65;1.58;;;26.70;79.80;;;;;;5031479;28;20047;-72
2022/09/19 10:08:18;;;;;;;1.98;1.13;;;26.40;81.30;;;;;;5031411;28;20131;-71
2022/09/19 10:10:53;;;;;;;3.30;1.60;;;26.30;81.00;;;;;;5015069;28;20037;-72
2022/09/19 10:13:27;;;;;;;4.43;1.17;;;26.40;79.10;;;;;;5031191;28;20061;-73
2022/09/19 10:16:03;;;;;;;2.53;1.30;;;26.50;80.30;;;;;;5031584;28;20056;-75
2022/09/19 10:18:46;;;;;;;2.22;1.27;;;26.70;81.30;;;;;;5015224;28;20053;-72
2022/09/19 10:21:18;;;;;;;6.60;1.35;;;26.90;81.00;;;;;;5014893;28;20048;-72
2022/09/19 10:23:53;;;;;;;2.22;1.17;;;27.00;80.30;;;;;;5030817;28;20041;-71
2022/09/19 10:26:30;;;;;;;2.63;1.30;;;27.10;79.50;;;;;;5014445;28;20118;-71
2022/09/19 10:29:12;;;;;;;1.88;1.15;;;27.30;79.50;;;;;;5014714;28;20053;-71
2022/09/19 10:31:41;;;;;;;1.50;0.73;;;27.30;79.80;;;;;;5049130;28;20068;-71
2022/09/19 10:34:34;;;;;;;2.03;1.10;;;27.30;78.20;;;;;;5030795;28;20392;-72
2022/09/19 10:37:12;;;;;;;3.47;1.30;;;27.00;75.50;;;;;;4998888;28;20053;-72
2022/09/19 10:39:43;;;;;;;2.83;1.10;;;26.60;76.20;;;;;;5014235;28;20045;-72
2022/09/19 10:42:40;;;;;;;2.80;1.17;;;26.70;76.10;;;;;;5030518;28;20467;-74
2022/09/19 10:45:25;;;;;;;2.75;1.33;;;26.90;75.20;;;;;;5030538;28;20521;-73
2022/09/19 10:48:17;;;;;;;2.65;0.90;;;26.70;75.20;;;;;;5014116;28;20072;-71
2022/09/19 10:50:48;;;;;;;4.25;1.30;;;26.60;76.00;;;;;;5030035;28;20044;-76
2022/09/19 10:53:22;;;;;;;3.65;1.92;;;26.80;76.70;;;;;;5013624;28;20068;-72
2022/09/19 10:55:52;;;;;;;3.50;1.30;;;26.90;76.80;;;;;;5014186;28;20085;-72
2022/09/19 10:58:26;;;;;;;1.73;1.02;;;26.80;75.90;;;;;;5014534;28;20072;-71
2022/09/19 11:01:23;;;;;;;4.85;1.30;;;26.40;75.60;;;;;;5032896;28;20167;-71
2022/09/19 11:04:04;;;;;;;3.28;0.93;;;26.30;75.60;;;;;;5014618;28;20124;-71
2022/09/19 11:06:33;;;;;;;2.13;1.10;;;26.30;75.80;;;;;;5030859;28;20040;-73
2022/09/19 11:09:23;;;;;;;4.78;1.70;;;26.40;74.60;;;;;;5010361;28;20240;-72
2022/09/19 11:11:50;;;;;;;3.00;2.17;;;26.50;74.90;;;;;;5010763;28;20078;-72
2022/09/19 11:14:37;;;;;;;2.70;1.35;;;26.50;76.10;;;;;;5010356;28;20169;-73
2022/09/19 11:17:29;;;;;;;2.97;1.30;;;26.70;74.00;;;;;;5026802;28;20125;-71
2022/09/19 11:20:11;;;;;;;3.50;1.55;;;26.40;73.40;;;;;;5010705;28;20045;-73
2022/09/19 11:23:22;;;;;;;3.17;1.42;;;26.40;73.80;;;;;;4994470;28;20144;-72
2022/09/19 11:25:52;;;;;;;3.22;1.55;;;26.40;75.90;;;;;;5026491;28;20041;-72
2022/09/19 11:28:26;;;;;;;3.35;1.25;;;26.50;77.00;;;;;;4994322;28;20172;-75
2022/09/19 11:31:17;;;;;;;2.65;1.40;;;26.60;76.00;;;;;;5010399;28;20053;-71
2022/09/19 11:34:42;;;;;;;1.90;1.15;;;26.50;75.70;;;;;;5012889;28;20037;-71
2022/09/19 11:37:45;;;;;;;29.55;4.40;;;26.50;76.30;;;;;;5008072;28;20060;-75
2022/09/19 11:40:56;;;;;;;3.13;1.60;;;26.50;76.10;;;;;;5023207;28;20065;-72
2022/09/19 11:43:44;;;;;;;3.35;1.70;;;26.50;77.80;;;;;;5023949;28;20064;-74
2022/09/19 11:46:16;;;;;;;2.47;1.05;;;26.50;78.00;;;;;;5026538;28;20103;-71
2022/09/19 11:48:54;;;;;;;2.55;1.00;;;26.60;79.00;;;;;;5026209;28;20071;-74
2022/09/19 11:51:49;;;;;;;1.77;0.73;;;26.50;79.70;;;;;;5010034;28;20147;-74
2022/09/19 11:55:12;;;;;;;2.35;1.00;;;26.50;79.70;;;;;;4994828;28;20069;-73
2022/09/19 11:58:03;;;;;;;2.65;0.85;;;26.60;80.10;;;;;;4993433;28;20057;-73
2022/09/19 12:00:50;;;;;;;2.95;0.90;;;26.60;78.60;;;;;;5009463;28;20108;-74
2022/09/19 12:03:50;;;;;;;2.03;0.93;;;26.50;78.90;;;;;;5010248;28;20051;-71
2022/09/19 12:06:42;;;;;;;2.22;1.00;;;26.40;80.30;;;;;;5010980;28;20041;-72
2022/09/19 12:09:20;;;;;;;2.15;1.10;;;26.40;80.60;;;;;;5029498;28;20428;-71
2022/09/19 12:11:55;;;;;;;5.47;2.05;;;26.10;80.50;;;;;;4997321;28;20114;-72
2022/09/19 12:14:29;;;;;;;11.02;1.67;;;26.20;80.30;;;;;;4999921;28;20151;-72
2022/09/19 12:17:10;;;;;;;1.15;0.82;;;26.20;79.80;;;;;;5001726;28;20049;-72
2022/09/19 12:19:44;;;;;;;2.40;1.02;;;26.20;79.70;;;;;;5016870;28;20060;-72
2022/09/19 12:22:28;;;;;;;1.10;0.65;;;26.20;79.30;;;;;;5033150;28;20049;-71
2022/09/19 12:25:19;;;;;;;2.28;0.90;;;26.20;79.50;;;;;;5017385;28;20037;-72
2022/09/19 12:28:10;;;;;;;2.53;0.90;;;26.30;77.70;;;;;;5017082;28;20037;-71
2022/09/19 12:30:48;;;;;;;1.23;0.80;;;26.40;78.00;;;;;;5032951;28;20051;-74
2022/09/19 12:33:24;;;;;;;7.47;1.52;;;26.20;79.30;;;;;;5051079;28;20045;-71
2022/09/19 12:36:11;;;;;;;1.80;0.80;;;26.30;79.70;;;;;;5033408;28;20158;-73
2022/09/19 12:39:21;;;;;;;1.90;0.93;;;26.30;79.60;;;;;;5032915;28;20037;-71
2022/09/19 12:42:21;;;;;;;3.47;0.95;;;26.10;80.50;;;;;;5021940;28;20049;-71
2022/09/19 12:45:19;;;;;;;1.73;0.73;;;25.90;81.70;;;;;;5051077;28;20053;-72
2022/09/19 12:48:12;;;;;;;2.25;1.48;;;25.90;82.70;;;;;;5017079;28;20459;-73
2022/09/19 12:51:07;;;;;;;2.85;1.38;;;25.90;83.00;;;;;;5032565;28;20049;-71
2022/09/19 12:53:52;;;;;;;2.83;1.27;;;25.70;79.80;;;;;;5050552;28;20049;-75
2022/09/19 12:56:37;;;;;;;4.50;2.05;;;25.70;79.90;;;;;;5050985;28;20052;-71
2022/09/19 12:59:22;;;;;;;2.13;1.15;;;25.60;81.50;;;;;;5033138;28;20140;-72
2022/09/19 13:02:01;;;;;;;2.22;1.10;;;25.60;82.70;;;;;;5032805;28;20052;-72
2022/09/19 13:04:43;;;;;;;1.88;1.13;;;25.40;82.20;;;;;;5050052;28;20775;-72
2022/09/19 13:07:32;;;;;;;5.57;1.17;;;25.40;83.70;;;;;;5051135;28;20041;-72
2022/09/19 13:10:18;;;;;;;3.50;1.15;;;25.20;85.50;;;;;;5050417;28;20068;-73
2022/09/19 13:13:00;;;;;;;2.67;1.10;;;25.10;84.80;;;;;;5032948;28;20049;-72
2022/09/19 13:16:04;;;;;;;2.67;1.50;;;25.10;85.70;;;;;;5050686;28;20052;-73
2022/09/19 13:24:07;;;;;;;2.47;1.23;;;25.30;89.00;;;;;;5050398;28;19991;-72
2022/09/19 13:26:36;;;;;;;1.98;1.23;;;25.40;88.90;;;;;;5032599;28;20406;-72
2022/09/19 13:29:28;;;;;;;2.15;1.33;;;25.40;87.30;;;;;;5032246;28;20498;-71
2022/09/19 13:32:01;;;;;;;2.72;1.27;;;25.40;88.40;;;;;;5050755;28;20403;-71
2022/09/19 13:34:59;;;;;;;3.53;1.38;;;25.40;89.20;;;;;;5032486;28;20055;-71
2022/09/19 13:37:28;;;;;;;2.45;1.17;;;25.30;90.00;;;;;;5050203;28;20040;-73
2022/09/19 13:40:23;;;;;;;3.45;2.15;;;25.20;87.10;;;;;;5032349;28;20447;-71
2022/09/19 13:43:11;;;;;;;3.85;1.70;;;25.30;86.50;;;;;;5050281;28;20052;-72
2022/09/19 13:46:02;;;;;;;2.50;1.00;;;25.20;86.00;;;;;;5016309;28;20832;-72
2022/09/19 13:48:49;;;;;;;2.88;1.33;;;25.20;86.50;;;;;;5032355;28;20052;-72
2022/09/19 13:51:30;;;;;;;2.78;1.65;;;25.20;87.80;;;;;;5050165;28;20053;-71
2022/09/19 13:54:19;;;;;;;2.17;1.08;;;25.30;88.10;;;;;;5050081;28;20129;-74
2022/09/19 13:57:01;;;;;;;2.63;1.30;;;25.40;88.00;;;;;;5049571;28;20044;-75
2022/09/19 13:59:37;;;;;;;3.80;2.25;;;25.40;88.40;;;;;;5031665;28;20045;-72